sensor_id;sensor_type;location;lat;lon;timestamp;temperature;humidity
2439;DHT22;14509;47.992;7.848;2022-07-15T00:01:15;26.60;37.40
2439;DHT22;14509;47.992;7.848;2022-07-15T00:03:17;26.50;37.50
2439;DHT22;14509;47.992;7.848;2022-07-15T00:05:19;26.50;37.60
2439;DHT22;14509;47.992;7.848;2022-07-15T00:07:21;26.50;37.70
2439;DHT22;14509;47.992;7.848;2022-07-15T00:09:22;26.70;37.80
2439;DHT22;14509;47.992;7.848;2022-07-15T00:11:44;26.40;37.50
2439;DHT22;14509;47.992;7.848;2022-07-15T00:13:48;26.30;37.50
2439;DHT22;14509;47.992;7.848;2022-07-15T00:15:49;26.30;37.50
2439;DHT22;14509;47.992;7.848;2022-07-15T00:17:52;26.30;37.50
2439;DHT22;14509;47.992;7.848;2022-07-15T00:19:54;26.20;37.50
2439;DHT22;14509;47.992;7.848;2022-07-15T00:21:56;26.20;37.50
2439;DHT22;14509;47.992;7.848;2022-07-15T00:23:58;26.10;37.40
2439;DHT22;14509;47.992;7.848;2022-07-15T00:26:00;26.00;37.40
2439;DHT22;14509;47.992;7.848;2022-07-15T00:28:04;25.80;37.30
2439;DHT22;14509;47.992;7.848;2022-07-15T00:30:08;26.00;37.50
2439;DHT22;14509;47.992;7.848;2022-07-15T00:32:10;25.90;37.50
2439;DHT22;14509;47.992;7.848;2022-07-15T00:34:12;25.90;37.50
2439;DHT22;14509;47.992;7.848;2022-07-15T00:36:14;26.20;37.80
2439;DHT22;14509;47.992;7.848;2022-07-15T00:38:16;25.80;37.70
2439;DHT22;14509;47.992;7.848;2022-07-15T00:40:18;25.80;37.90
2439;DHT22;14509;47.992;7.848;2022-07-15T00:42:20;25.70;38.00
2439;DHT22;14509;47.992;7.848;2022-07-15T00:44:36;25.70;38.10
2439;DHT22;14509;47.992;7.848;2022-07-15T00:46:40;25.60;38.00
2439;DHT22;14509;47.992;7.848;2022-07-15T00:48:42;25.60;38.10
2439;DHT22;14509;47.992;7.848;2022-07-15T00:50:44;25.60;38.20
2439;DHT22;14509;47.992;7.848;2022-07-15T00:52:51;25.60;38.20
2439;DHT22;14509;47.992;7.848;2022-07-15T00:54:58;25.50;38.60
2439;DHT22;14509;47.992;7.848;2022-07-15T00:57:00;25.50;38.90
2439;DHT22;14509;47.992;7.848;2022-07-15T00:59:03;25.50;39.20
2439;DHT22;14509;47.992;7.848;2022-07-15T01:01:07;25.40;39.90
2439;DHT22;14509;47.992;7.848;2022-07-15T01:03:11;25.40;40.30
2439;DHT22;14509;47.992;7.848;2022-07-15T01:05:13;25.30;40.70
2439;DHT22;14509;47.992;7.848;2022-07-15T01:07:15;25.30;41.50
2439;DHT22;14509;47.992;7.848;2022-07-15T01:09:17;25.30;41.50
2439;DHT22;14509;47.992;7.848;2022-07-15T01:11:21;25.20;41.70
2439;DHT22;14509;47.992;7.848;2022-07-15T01:13:23;25.20;41.70
2439;DHT22;14509;47.992;7.848;2022-07-15T01:15:27;25.20;41.70
2439;DHT22;14509;47.992;7.848;2022-07-15T01:17:31;24.80;46.70
2439;DHT22;14509;47.992;7.848;2022-07-15T01:19:35;25.00;45.70
2439;DHT22;14509;47.992;7.848;2022-07-15T01:21:38;24.90;47.50
2439;DHT22;14509;47.992;7.848;2022-07-15T01:23:40;24.70;52.10
2439;DHT22;14509;47.992;7.848;2022-07-15T01:25:49;26.10;45.20
2439;DHT22;14509;47.992;7.848;2022-07-15T01:27:54;25.00;42.40
2439;DHT22;14509;47.992;7.848;2022-07-15T01:29:59;25.00;42.50
2439;DHT22;14509;47.992;7.848;2022-07-15T01:32:04;24.90;41.90
2439;DHT22;14509;47.992;7.848;2022-07-15T01:34:06;24.90;41.10
2439;DHT22;14509;47.992;7.848;2022-07-15T01:36:09;25.00;40.70
2439;DHT22;14509;47.992;7.848;2022-07-15T01:38:15;24.80;42.40
2439;DHT22;14509;47.992;7.848;2022-07-15T01:40:17;24.80;40.10
2439;DHT22;14509;47.992;7.848;2022-07-15T01:42:20;24.70;40.10
2439;DHT22;14509;47.992;7.848;2022-07-15T01:44:22;24.80;40.20
2439;DHT22;14509;47.992;7.848;2022-07-15T01:46:24;24.50;40.20
2439;DHT22;14509;47.992;7.848;2022-07-15T01:48:26;24.70;41.00
2439;DHT22;14509;47.992;7.848;2022-07-15T01:51:06;24.70;41.60
2439;DHT22;14509;47.992;7.848;2022-07-15T01:53:08;24.70;41.90
2439;DHT22;14509;47.992;7.848;2022-07-15T01:55:12;24.70;41.90
2439;DHT22;14509;47.992;7.848;2022-07-15T01:57:14;24.70;41.80
2439;DHT22;14509;47.992;7.848;2022-07-15T01:59:29;24.70;42.00
2439;DHT22;14509;47.992;7.848;2022-07-15T02:01:32;24.70;41.90
2439;DHT22;14509;47.992;7.848;2022-07-15T02:03:39;24.70;41.90
2439;DHT22;14509;47.992;7.848;2022-07-15T02:05:42;24.70;41.90
2439;DHT22;14509;47.992;7.848;2022-07-15T02:07:44;24.70;42.00
2439;DHT22;14509;47.992;7.848;2022-07-15T02:09:48;24.70;41.90
2439;DHT22;14509;47.992;7.848;2022-07-15T02:11:52;24.70;41.70
2439;DHT22;14509;47.992;7.848;2022-07-15T02:13:56;24.60;42.30
2439;DHT22;14509;47.992;7.848;2022-07-15T02:16:01;24.60;46.10
2439;DHT22;14509;47.992;7.848;2022-07-15T02:18:04;24.60;41.60
2439;DHT22;14509;47.992;7.848;2022-07-15T02:20:07;24.50;44.20
2439;DHT22;14509;47.992;7.848;2022-07-15T02:22:09;24.60;53.10
2439;DHT22;14509;47.992;7.848;2022-07-15T02:24:11;24.50;46.20
2439;DHT22;14509;47.992;7.848;2022-07-15T02:26:12;24.60;47.30
2439;DHT22;14509;47.992;7.848;2022-07-15T02:28:16;24.50;42.50
2439;DHT22;14509;47.992;7.848;2022-07-15T02:30:18;24.50;42.20
2439;DHT22;14509;47.992;7.848;2022-07-15T02:32:20;24.40;42.00
2439;DHT22;14509;47.992;7.848;2022-07-15T02:34:21;24.50;42.00
2439;DHT22;14509;47.992;7.848;2022-07-15T02:36:23;24.50;42.00
2439;DHT22;14509;47.992;7.848;2022-07-15T02:38:26;24.50;41.70
2439;DHT22;14509;47.992;7.848;2022-07-15T02:40:28;24.40;41.50
2439;DHT22;14509;47.992;7.848;2022-07-15T02:42:31;24.40;41.80
2439;DHT22;14509;47.992;7.848;2022-07-15T02:44:36;24.40;40.80
2439;DHT22;14509;47.992;7.848;2022-07-15T02:46:38;24.50;40.60
2439;DHT22;14509;47.992;7.848;2022-07-15T02:48:40;24.40;40.00
2439;DHT22;14509;47.992;7.848;2022-07-15T02:50:42;24.50;39.50
2439;DHT22;14509;47.992;7.848;2022-07-15T02:52:45;24.40;38.30
2439;DHT22;14509;47.992;7.848;2022-07-15T02:54:47;24.40;37.90
2439;DHT22;14509;47.992;7.848;2022-07-15T02:56:51;24.50;37.30
2439;DHT22;14509;47.992;7.848;2022-07-15T02:58:53;24.60;36.70
2439;DHT22;14509;47.992;7.848;2022-07-15T03:00:57;24.50;36.50
2439;DHT22;14509;47.992;7.848;2022-07-15T03:03:01;24.60;36.20
2439;DHT22;14509;47.992;7.848;2022-07-15T03:05:04;24.60;35.80
2439;DHT22;14509;47.992;7.848;2022-07-15T03:07:06;24.60;35.50
2439;DHT22;14509;47.992;7.848;2022-07-15T03:09:12;24.70;35.60
2439;DHT22;14509;47.992;7.848;2022-07-15T03:11:14;24.70;35.80
2439;DHT22;14509;47.992;7.848;2022-07-15T03:13:19;24.70;36.00
2439;DHT22;14509;47.992;7.848;2022-07-15T03:15:20;24.60;36.60
2439;DHT22;14509;47.992;7.848;2022-07-15T03:17:24;24.60;37.30
2439;DHT22;14509;47.992;7.848;2022-07-15T03:19:25;25.20;38.90
2439;DHT22;14509;47.992;7.848;2022-07-15T03:21:27;24.50;39.00
2439;DHT22;14509;47.992;7.848;2022-07-15T03:23:30;24.40;39.40
2439;DHT22;14509;47.992;7.848;2022-07-15T03:25:32;23.80;40.20
2439;DHT22;14509;47.992;7.848;2022-07-15T03:27:39;24.30;42.70
2439;DHT22;14509;47.992;7.848;2022-07-15T03:29:44;24.00;39.90
2439;DHT22;14509;47.992;7.848;2022-07-15T03:31:47;24.10;40.40
2439;DHT22;14509;47.992;7.848;2022-07-15T03:33:56;24.00;40.70
2439;DHT22;14509;47.992;7.848;2022-07-15T03:36:00;23.90;40.80
2439;DHT22;14509;47.992;7.848;2022-07-15T03:38:05;23.90;41.30
2439;DHT22;14509;47.992;7.848;2022-07-15T03:40:07;24.10;41.70
2439;DHT22;14509;47.992;7.848;2022-07-15T03:42:12;23.80;41.70
2439;DHT22;14509;47.992;7.848;2022-07-15T03:44:15;23.80;42.00
2439;DHT22;14509;47.992;7.848;2022-07-15T03:46:21;23.70;42.40
2439;DHT22;14509;47.992;7.848;2022-07-15T03:48:27;23.60;42.50
2439;DHT22;14509;47.992;7.848;2022-07-15T03:50:32;23.50;42.90
2439;DHT22;14509;47.992;7.848;2022-07-15T03:52:35;23.50;43.00
2439;DHT22;14509;47.992;7.848;2022-07-15T03:54:39;23.40;42.80
2439;DHT22;14509;47.992;7.848;2022-07-15T03:56:41;23.40;43.00
2439;DHT22;14509;47.992;7.848;2022-07-15T03:58:42;23.40;43.20
2439;DHT22;14509;47.992;7.848;2022-07-15T04:00:46;23.30;43.70
2439;DHT22;14509;47.992;7.848;2022-07-15T04:02:47;23.30;43.80
2439;DHT22;14509;47.992;7.848;2022-07-15T04:04:49;23.30;43.90
2439;DHT22;14509;47.992;7.848;2022-07-15T04:06:53;23.20;43.80
2439;DHT22;14509;47.992;7.848;2022-07-15T04:08:57;23.20;43.90
2439;DHT22;14509;47.992;7.848;2022-07-15T04:10:59;23.10;43.90
2439;DHT22;14509;47.992;7.848;2022-07-15T04:13:02;23.10;43.50
2439;DHT22;14509;47.992;7.848;2022-07-15T04:15:05;23.10;42.90
2439;DHT22;14509;47.992;7.848;2022-07-15T04:17:07;23.00;42.50
2439;DHT22;14509;47.992;7.848;2022-07-15T04:19:11;23.00;42.30
2439;DHT22;14509;47.992;7.848;2022-07-15T04:21:13;23.00;42.30
2439;DHT22;14509;47.992;7.848;2022-07-15T04:23:16;23.00;43.30
2439;DHT22;14509;47.992;7.848;2022-07-15T04:25:21;22.90;42.10
2439;DHT22;14509;47.992;7.848;2022-07-15T04:27:23;22.90;42.50
2439;DHT22;14509;47.992;7.848;2022-07-15T04:29:25;22.80;44.40
2439;DHT22;14509;47.992;7.848;2022-07-15T04:31:27;22.90;42.20
2439;DHT22;14509;47.992;7.848;2022-07-15T04:33:38;22.90;42.20
2439;DHT22;14509;47.992;7.848;2022-07-15T04:35:41;22.90;42.20
2439;DHT22;14509;47.992;7.848;2022-07-15T04:37:43;23.00;42.30
2439;DHT22;14509;47.992;7.848;2022-07-15T04:39:46;22.90;42.30
2439;DHT22;14509;47.992;7.848;2022-07-15T04:41:48;23.00;42.20
2439;DHT22;14509;47.992;7.848;2022-07-15T04:43:52;23.10;42.20
2439;DHT22;14509;47.992;7.848;2022-07-15T04:45:53;23.00;42.10
2439;DHT22;14509;47.992;7.848;2022-07-15T04:47:56;23.10;42.10
2439;DHT22;14509;47.992;7.848;2022-07-15T04:50:05;22.90;42.00
2439;DHT22;14509;47.992;7.848;2022-07-15T04:52:24;23.10;42.20
2439;DHT22;14509;47.992;7.848;2022-07-15T04:54:26;23.10;42.20
2439;DHT22;14509;47.992;7.848;2022-07-15T04:56:30;23.10;42.30
2439;DHT22;14509;47.992;7.848;2022-07-15T04:58:38;23.10;42.20
2439;DHT22;14509;47.992;7.848;2022-07-15T05:00:42;23.20;42.20
2439;DHT22;14509;47.992;7.848;2022-07-15T05:02:47;23.20;42.20
2439;DHT22;14509;47.992;7.848;2022-07-15T05:04:50;23.20;42.00
2439;DHT22;14509;47.992;7.848;2022-07-15T05:06:54;23.30;42.00
2439;DHT22;14509;47.992;7.848;2022-07-15T05:08:58;23.30;41.90
2439;DHT22;14509;47.992;7.848;2022-07-15T05:11:05;23.10;44.50
2439;DHT22;14509;47.992;7.848;2022-07-15T05:13:09;23.50;45.20
2439;DHT22;14509;47.992;7.848;2022-07-15T05:15:10;23.30;51.10
2439;DHT22;14509;47.992;7.848;2022-07-15T05:17:15;23.20;59.20
2439;DHT22;14509;47.992;7.848;2022-07-15T05:19:19;23.20;41.00
2439;DHT22;14509;47.992;7.848;2022-07-15T05:21:21;23.50;41.60
2439;DHT22;14509;47.992;7.848;2022-07-15T05:23:23;23.50;41.50
2439;DHT22;14509;47.992;7.848;2022-07-15T05:25:29;23.60;41.40
2439;DHT22;14509;47.992;7.848;2022-07-15T05:27:31;23.60;41.30
2439;DHT22;14509;47.992;7.848;2022-07-15T05:29:34;23.60;41.10
2439;DHT22;14509;47.992;7.848;2022-07-15T05:31:37;23.70;41.10
2439;DHT22;14509;47.992;7.848;2022-07-15T05:33:39;23.70;41.00
2439;DHT22;14509;47.992;7.848;2022-07-15T05:35:43;23.70;40.90
2439;DHT22;14509;47.992;7.848;2022-07-15T05:37:46;23.80;40.90
2439;DHT22;14509;47.992;7.848;2022-07-15T05:39:54;23.80;40.80
2439;DHT22;14509;47.992;7.848;2022-07-15T05:42:15;23.90;40.90
2439;DHT22;14509;47.992;7.848;2022-07-15T05:44:17;23.90;40.80
2439;DHT22;14509;47.992;7.848;2022-07-15T05:46:23;23.90;40.70
2439;DHT22;14509;47.992;7.848;2022-07-15T05:48:30;24.00;40.60
2439;DHT22;14509;47.992;7.848;2022-07-15T05:50:32;24.10;40.50
2439;DHT22;14509;47.992;7.848;2022-07-15T05:52:35;24.10;40.40
2439;DHT22;14509;47.992;7.848;2022-07-15T05:54:39;24.20;40.40
2439;DHT22;14509;47.992;7.848;2022-07-15T05:56:43;24.20;40.20
2439;DHT22;14509;47.992;7.848;2022-07-15T05:58:50;24.30;40.10
2439;DHT22;14509;47.992;7.848;2022-07-15T06:00:54;24.40;40.10
2439;DHT22;14509;47.992;7.848;2022-07-15T06:03:00;24.40;40.00
2439;DHT22;14509;47.992;7.848;2022-07-15T06:05:04;24.40;40.00
2439;DHT22;14509;47.992;7.848;2022-07-15T06:07:06;24.50;39.80
2439;DHT22;14509;47.992;7.848;2022-07-15T06:09:08;24.50;39.60
2439;DHT22;14509;47.992;7.848;2022-07-15T06:11:12;24.60;39.70
2439;DHT22;14509;47.992;7.848;2022-07-15T06:13:16;24.60;39.70
2439;DHT22;14509;47.992;7.848;2022-07-15T06:15:21;24.60;39.40
2439;DHT22;14509;47.992;7.848;2022-07-15T06:17:24;24.80;39.50
2439;DHT22;14509;47.992;7.848;2022-07-15T06:19:29;24.80;39.30
2439;DHT22;14509;47.992;7.848;2022-07-15T06:21:31;24.90;39.30
2439;DHT22;14509;47.992;7.848;2022-07-15T06:23:33;24.90;39.20
2439;DHT22;14509;47.992;7.848;2022-07-15T06:25:35;25.00;39.10
2439;DHT22;14509;47.992;7.848;2022-07-15T06:27:37;25.10;38.90
2439;DHT22;14509;47.992;7.848;2022-07-15T06:29:40;25.10;38.90
2439;DHT22;14509;47.992;7.848;2022-07-15T06:31:42;25.20;38.60
2439;DHT22;14509;47.992;7.848;2022-07-15T06:33:43;25.20;38.40
2439;DHT22;14509;47.992;7.848;2022-07-15T06:35:46;25.30;38.40
2439;DHT22;14509;47.992;7.848;2022-07-15T06:37:49;25.40;38.40
2439;DHT22;14509;47.992;7.848;2022-07-15T06:39:51;25.40;38.10
2439;DHT22;14509;47.992;7.848;2022-07-15T06:41:55;25.50;37.90
2439;DHT22;14509;47.992;7.848;2022-07-15T06:43:57;25.60;37.50
2439;DHT22;14509;47.992;7.848;2022-07-15T06:46:09;25.60;37.30
2439;DHT22;14509;47.992;7.848;2022-07-15T06:48:13;25.60;36.90
2439;DHT22;14509;47.992;7.848;2022-07-15T06:50:15;25.70;36.90
2439;DHT22;14509;47.992;7.848;2022-07-15T06:52:21;25.90;37.00
2439;DHT22;14509;47.992;7.848;2022-07-15T06:54:23;25.70;36.80
2439;DHT22;14509;47.992;7.848;2022-07-15T06:56:25;25.80;36.90
2439;DHT22;14509;47.992;7.848;2022-07-15T06:58:29;25.80;36.60
2439;DHT22;14509;47.992;7.848;2022-07-15T07:00:31;25.90;36.60
2439;DHT22;14509;47.992;7.848;2022-07-15T07:02:33;25.90;36.40
2439;DHT22;14509;47.992;7.848;2022-07-15T07:04:36;26.00;36.40
2439;DHT22;14509;47.992;7.848;2022-07-15T07:06:39;26.00;36.00
2439;DHT22;14509;47.992;7.848;2022-07-15T07:08:42;26.00;36.10
2439;DHT22;14509;47.992;7.848;2022-07-15T07:10:47;26.10;36.10
2439;DHT22;14509;47.992;7.848;2022-07-15T07:12:48;26.10;36.20
2439;DHT22;14509;47.992;7.848;2022-07-15T07:14:50;26.20;36.00
2439;DHT22;14509;47.992;7.848;2022-07-15T07:16:53;26.20;35.60
2439;DHT22;14509;47.992;7.848;2022-07-15T07:18:55;26.20;35.80
2439;DHT22;14509;47.992;7.848;2022-07-15T07:20:57;26.30;36.00
2439;DHT22;14509;47.992;7.848;2022-07-15T07:22:59;26.30;36.40
2439;DHT22;14509;47.992;7.848;2022-07-15T07:25:03;26.30;35.70
2439;DHT22;14509;47.992;7.848;2022-07-15T07:27:05;26.30;35.60
2439;DHT22;14509;47.992;7.848;2022-07-15T07:29:07;26.40;35.60
2439;DHT22;14509;47.992;7.848;2022-07-15T07:31:12;26.40;35.30
2439;DHT22;14509;47.992;7.848;2022-07-15T07:33:14;26.50;35.60
2439;DHT22;14509;47.992;7.848;2022-07-15T07:35:16;26.60;35.50
2439;DHT22;14509;47.992;7.848;2022-07-15T07:37:18;26.60;35.40
2439;DHT22;14509;47.992;7.848;2022-07-15T07:39:20;26.60;35.10
2439;DHT22;14509;47.992;7.848;2022-07-15T07:41:25;26.70;35.00
2439;DHT22;14509;47.992;7.848;2022-07-15T07:43:28;26.70;35.00
2439;DHT22;14509;47.992;7.848;2022-07-15T07:45:30;26.90;34.80
2439;DHT22;14509;47.992;7.848;2022-07-15T07:47:33;26.80;34.90
2439;DHT22;14509;47.992;7.848;2022-07-15T07:49:37;26.80;34.60
2439;DHT22;14509;47.992;7.848;2022-07-15T07:51:40;26.80;34.10
2439;DHT22;14509;47.992;7.848;2022-07-15T07:53:42;26.90;34.10
2439;DHT22;14509;47.992;7.848;2022-07-15T07:55:44;26.90;33.80
2439;DHT22;14509;47.992;7.848;2022-07-15T07:57:52;27.00;33.50
2439;DHT22;14509;47.992;7.848;2022-07-15T07:59:54;27.10;33.70
2439;DHT22;14509;47.992;7.848;2022-07-15T08:01:55;27.10;33.20
2439;DHT22;14509;47.992;7.848;2022-07-15T08:03:57;27.20;32.90
2439;DHT22;14509;47.992;7.848;2022-07-15T08:05:59;27.40;32.80
2439;DHT22;14509;47.992;7.848;2022-07-15T08:08:09;27.20;32.50
2439;DHT22;14509;47.992;7.848;2022-07-15T08:10:12;27.30;33.00
2439;DHT22;14509;47.992;7.848;2022-07-15T08:12:14;27.30;32.70
2439;DHT22;14509;47.992;7.848;2022-07-15T08:14:18;27.50;33.70
2439;DHT22;14509;47.992;7.848;2022-07-15T08:16:20;27.40;33.10
2439;DHT22;14509;47.992;7.848;2022-07-15T08:18:23;27.40;33.10
2439;DHT22;14509;47.992;7.848;2022-07-15T08:20:25;27.40;32.80
2439;DHT22;14509;47.992;7.848;2022-07-15T08:22:26;27.50;32.80
2439;DHT22;14509;47.992;7.848;2022-07-15T08:24:28;27.60;32.90
2439;DHT22;14509;47.992;7.848;2022-07-15T08:26:30;27.60;32.80
2439;DHT22;14509;47.992;7.848;2022-07-15T08:28:32;29.00;32.90
2439;DHT22;14509;47.992;7.848;2022-07-15T08:30:35;27.70;32.10
2439;DHT22;14509;47.992;7.848;2022-07-15T08:32:37;27.80;32.00
2439;DHT22;14509;47.992;7.848;2022-07-15T08:34:39;27.80;32.10
2439;DHT22;14509;47.992;7.848;2022-07-15T08:36:42;27.90;31.90
2439;DHT22;14509;47.992;7.848;2022-07-15T08:38:44;28.00;32.00
2439;DHT22;14509;47.992;7.848;2022-07-15T08:40:46;27.90;31.40
2439;DHT22;14509;47.992;7.848;2022-07-15T08:42:48;28.00;31.40
2439;DHT22;14509;47.992;7.848;2022-07-15T08:44:50;28.00;31.20
2439;DHT22;14509;47.992;7.848;2022-07-15T08:46:59;28.00;31.10
2439;DHT22;14509;47.992;7.848;2022-07-15T08:49:05;28.00;31.10
2439;DHT22;14509;47.992;7.848;2022-07-15T08:51:08;28.00;31.00
2439;DHT22;14509;47.992;7.848;2022-07-15T08:53:10;28.00;31.20
2439;DHT22;14509;47.992;7.848;2022-07-15T08:55:13;28.10;31.40
2439;DHT22;14509;47.992;7.848;2022-07-15T08:57:16;28.00;31.50
2439;DHT22;14509;47.992;7.848;2022-07-15T08:59:18;28.20;31.60
2439;DHT22;14509;47.992;7.848;2022-07-15T09:01:20;28.30;31.60
2439;DHT22;14509;47.992;7.848;2022-07-15T09:03:23;28.30;31.50
2439;DHT22;14509;47.992;7.848;2022-07-15T09:05:27;28.40;31.70
2439;DHT22;14509;47.992;7.848;2022-07-15T09:07:29;28.50;31.60
2439;DHT22;14509;47.992;7.848;2022-07-15T09:09:32;28.50;31.30
2439;DHT22;14509;47.992;7.848;2022-07-15T09:11:35;28.60;31.00
2439;DHT22;14509;47.992;7.848;2022-07-15T09:13:38;28.60;30.80
2439;DHT22;14509;47.992;7.848;2022-07-15T09:15:40;28.60;30.80
2439;DHT22;14509;47.992;7.848;2022-07-15T09:17:42;28.60;30.50
2439;DHT22;14509;47.992;7.848;2022-07-15T09:20:05;28.70;30.60
2439;DHT22;14509;47.992;7.848;2022-07-15T09:22:08;28.80;30.80
2439;DHT22;14509;47.992;7.848;2022-07-15T09:24:17;28.90;30.60
2439;DHT22;14509;47.992;7.848;2022-07-15T09:26:25;29.00;30.60
2439;DHT22;14509;47.992;7.848;2022-07-15T09:28:38;29.00;30.60
2439;DHT22;14509;47.992;7.848;2022-07-15T09:30:42;29.00;30.30
2439;DHT22;14509;47.992;7.848;2022-07-15T09:33:05;29.00;30.50
2439;DHT22;14509;47.992;7.848;2022-07-15T09:35:27;29.10;30.60
2439;DHT22;14509;47.992;7.848;2022-07-15T09:37:54;29.00;30.40
2439;DHT22;14509;47.992;7.848;2022-07-15T09:39:57;29.00;30.60
2439;DHT22;14509;47.992;7.848;2022-07-15T09:42:05;29.00;30.80
2439;DHT22;14509;47.992;7.848;2022-07-15T09:44:09;29.10;31.40
2439;DHT22;14509;47.992;7.848;2022-07-15T09:46:12;29.20;30.40
2439;DHT22;14509;47.992;7.848;2022-07-15T09:48:14;29.30;30.00
2439;DHT22;14509;47.992;7.848;2022-07-15T09:50:33;29.30;30.00
2439;DHT22;14509;47.992;7.848;2022-07-15T09:52:45;29.40;30.20
2439;DHT22;14509;47.992;7.848;2022-07-15T09:54:49;29.40;30.80
2439;DHT22;14509;47.992;7.848;2022-07-15T09:56:53;29.50;30.00
2439;DHT22;14509;47.992;7.848;2022-07-15T09:58:55;29.50;30.00
2439;DHT22;14509;47.992;7.848;2022-07-15T10:00:57;29.60;29.90
2439;DHT22;14509;47.992;7.848;2022-07-15T10:03:00;29.50;29.60
2439;DHT22;14509;47.992;7.848;2022-07-15T10:05:02;29.70;29.30
2439;DHT22;14509;47.992;7.848;2022-07-15T10:07:06;29.80;29.20
2439;DHT22;14509;47.992;7.848;2022-07-15T10:09:09;29.80;29.00
2439;DHT22;14509;47.992;7.848;2022-07-15T10:11:11;29.90;29.10
2439;DHT22;14509;47.992;7.848;2022-07-15T10:13:33;30.00;28.90
2439;DHT22;14509;47.992;7.848;2022-07-15T10:15:44;30.00;28.90
2439;DHT22;14509;47.992;7.848;2022-07-15T10:17:59;30.10;28.90
2439;DHT22;14509;47.992;7.848;2022-07-15T10:20:17;30.10;29.10
2439;DHT22;14509;47.992;7.848;2022-07-15T10:22:33;30.10;28.80
2439;DHT22;14509;47.992;7.848;2022-07-15T10:25:02;30.20;28.90
2439;DHT22;14509;47.992;7.848;2022-07-15T10:27:23;30.20;28.90
2439;DHT22;14509;47.992;7.848;2022-07-15T10:29:29;30.20;28.90
2439;DHT22;14509;47.992;7.848;2022-07-15T10:31:33;30.20;29.30
2439;DHT22;14509;47.992;7.848;2022-07-15T10:33:35;30.30;28.70
2439;DHT22;14509;47.992;7.848;2022-07-15T10:35:38;30.20;28.70
2439;DHT22;14509;47.992;7.848;2022-07-15T10:40:19;30.30;28.70
2439;DHT22;14509;47.992;7.848;2022-07-15T10:42:21;30.30;28.30
2439;DHT22;14509;47.992;7.848;2022-07-15T10:44:25;30.30;28.40
2439;DHT22;14509;47.992;7.848;2022-07-15T10:46:28;30.50;28.30
2439;DHT22;14509;47.992;7.848;2022-07-15T10:48:30;30.60;27.90
2439;DHT22;14509;47.992;7.848;2022-07-15T10:50:38;30.60;27.80
2439;DHT22;14509;47.992;7.848;2022-07-15T10:52:40;30.80;27.60
2439;DHT22;14509;47.992;7.848;2022-07-15T10:54:45;30.60;27.70
2439;DHT22;14509;47.992;7.848;2022-07-15T10:56:49;30.70;27.80
2439;DHT22;14509;47.992;7.848;2022-07-15T10:59:07;30.90;27.90
2439;DHT22;14509;47.992;7.848;2022-07-15T11:01:10;30.80;27.60
2439;DHT22;14509;47.992;7.848;2022-07-15T11:03:14;30.90;27.60
2439;DHT22;14509;47.992;7.848;2022-07-15T11:05:18;30.70;27.40
2439;DHT22;14509;47.992;7.848;2022-07-15T11:07:28;30.90;27.50
2439;DHT22;14509;47.992;7.848;2022-07-15T11:09:45;30.90;27.40
2439;DHT22;14509;47.992;7.848;2022-07-15T11:11:49;30.90;27.50
2439;DHT22;14509;47.992;7.848;2022-07-15T11:13:51;30.90;27.30
2439;DHT22;14509;47.992;7.848;2022-07-15T11:15:58;31.10;27.20
2439;DHT22;14509;47.992;7.848;2022-07-15T11:18:01;31.00;27.10
2439;DHT22;14509;47.992;7.848;2022-07-15T11:20:05;31.10;27.20
2439;DHT22;14509;47.992;7.848;2022-07-15T11:22:09;31.10;27.10
2439;DHT22;14509;47.992;7.848;2022-07-15T11:24:11;31.10;26.90
2439;DHT22;14509;47.992;7.848;2022-07-15T11:26:15;31.20;26.90
2439;DHT22;14509;47.992;7.848;2022-07-15T11:28:18;31.20;27.20
2439;DHT22;14509;47.992;7.848;2022-07-15T11:30:21;31.30;26.80
2439;DHT22;14509;47.992;7.848;2022-07-15T11:32:23;31.50;26.60
2439;DHT22;14509;47.992;7.848;2022-07-15T11:34:36;31.60;26.50
2439;DHT22;14509;47.992;7.848;2022-07-15T11:36:39;31.80;26.40
2439;DHT22;14509;47.992;7.848;2022-07-15T11:38:41;31.80;26.10
2439;DHT22;14509;47.992;7.848;2022-07-15T11:40:45;31.70;25.80
2439;DHT22;14509;47.992;7.848;2022-07-15T11:43:12;31.70;25.50
2439;DHT22;14509;47.992;7.848;2022-07-15T11:45:35;31.70;25.60
2439;DHT22;14509;47.992;7.848;2022-07-15T11:47:51;31.70;25.60
2439;DHT22;14509;47.992;7.848;2022-07-15T11:49:58;31.70;25.70
2439;DHT22;14509;47.992;7.848;2022-07-15T11:52:02;32.00;25.60
2439;DHT22;14509;47.992;7.848;2022-07-15T11:54:04;31.80;25.50
2439;DHT22;14509;47.992;7.848;2022-07-15T11:56:07;31.80;25.30
2439;DHT22;14509;47.992;7.848;2022-07-15T11:58:09;32.00;25.70
2439;DHT22;14509;47.992;7.848;2022-07-15T12:00:12;31.90;25.30
2439;DHT22;14509;47.992;7.848;2022-07-15T12:02:16;31.90;25.20
2439;DHT22;14509;47.992;7.848;2022-07-15T12:04:26;31.90;25.00
2439;DHT22;14509;47.992;7.848;2022-07-15T12:06:30;32.00;25.30
2439;DHT22;14509;47.992;7.848;2022-07-15T12:08:38;31.80;25.30
2439;DHT22;14509;47.992;7.848;2022-07-15T12:10:41;32.00;25.10
2439;DHT22;14509;47.992;7.848;2022-07-15T12:12:52;32.00;25.10
2439;DHT22;14509;47.992;7.848;2022-07-15T12:14:55;32.10;25.00
2439;DHT22;14509;47.992;7.848;2022-07-15T12:16:57;32.10;25.00
2439;DHT22;14509;47.992;7.848;2022-07-15T12:19:03;32.10;25.00
2439;DHT22;14509;47.992;7.848;2022-07-15T12:21:06;32.00;25.00
2439;DHT22;14509;47.992;7.848;2022-07-15T12:23:10;32.10;24.90
2439;DHT22;14509;47.992;7.848;2022-07-15T12:25:18;32.00;24.90
2439;DHT22;14509;47.992;7.848;2022-07-15T12:27:32;32.00;24.60
2439;DHT22;14509;47.992;7.848;2022-07-15T12:29:34;32.10;24.50
2439;DHT22;14509;47.992;7.848;2022-07-15T12:31:38;32.80;24.70
2439;DHT22;14509;47.992;7.848;2022-07-15T12:33:41;32.00;24.70
2439;DHT22;14509;47.992;7.848;2022-07-15T12:35:44;31.90;24.80
2439;DHT22;14509;47.992;7.848;2022-07-15T12:37:48;32.20;24.90
2439;DHT22;14509;47.992;7.848;2022-07-15T12:39:55;32.00;25.00
2439;DHT22;14509;47.992;7.848;2022-07-15T12:42:02;32.10;24.80
2439;DHT22;14509;47.992;7.848;2022-07-15T12:44:05;32.10;24.90
2439;DHT22;14509;47.992;7.848;2022-07-15T12:46:07;32.20;24.80
2439;DHT22;14509;47.992;7.848;2022-07-15T12:48:11;32.30;24.50
2439;DHT22;14509;47.992;7.848;2022-07-15T12:50:14;32.30;24.40
2439;DHT22;14509;47.992;7.848;2022-07-15T12:54:36;32.20;24.30
2439;DHT22;14509;47.992;7.848;2022-07-15T12:56:50;32.30;24.40
2439;DHT22;14509;47.992;7.848;2022-07-15T12:58:53;32.30;24.00
2439;DHT22;14509;47.992;7.848;2022-07-15T13:01:05;32.40;24.10
2439;DHT22;14509;47.992;7.848;2022-07-15T13:03:10;32.40;23.90
2439;DHT22;14509;47.992;7.848;2022-07-15T13:05:12;32.50;24.10
2439;DHT22;14509;47.992;7.848;2022-07-15T13:07:14;32.80;23.90
2439;DHT22;14509;47.992;7.848;2022-07-15T13:09:18;33.10;23.80
2439;DHT22;14509;47.992;7.848;2022-07-15T13:11:20;33.50;23.50
2439;DHT22;14509;47.992;7.848;2022-07-15T13:13:26;33.80;23.20
2439;DHT22;14509;47.992;7.848;2022-07-15T13:15:29;34.10;22.90
2439;DHT22;14509;47.992;7.848;2022-07-15T13:17:31;34.40;22.60
2439;DHT22;14509;47.992;7.848;2022-07-15T13:19:33;34.60;22.60
2439;DHT22;14509;47.992;7.848;2022-07-15T13:21:35;34.90;22.30
2439;DHT22;14509;47.992;7.848;2022-07-15T13:23:37;34.90;21.50